createdAt,value
2018-10-17T00:00:13.777Z,101106.00
2018-10-17T00:02:45.581Z,101107.00
2018-10-17T00:05:15.347Z,101096.00
2018-10-17T00:07:44.721Z,101094.00
2018-10-17T00:10:15.280Z,101084.00
2018-10-17T00:12:44.655Z,101087.00
2018-10-17T00:15:13.977Z,101090.00
2018-10-17T00:17:43.757Z,101093.00
2018-10-17T00:20:13.411Z,101087.00
2018-10-17T00:22:42.736Z,101102.00
2018-10-17T00:25:12.128Z,101085.00
2018-10-17T00:27:45.379Z,101085.00
2018-10-17T00:30:14.699Z,101088.00
2018-10-17T00:32:44.115Z,101088.00
2018-10-17T00:35:13.543Z,101088.00
2018-10-17T00:37:43.436Z,101099.00
2018-10-17T00:40:13.164Z,101084.00
2018-10-17T00:42:43.054Z,101086.00
2018-10-17T00:45:12.377Z,101091.00
2018-10-17T00:47:41.726Z,101085.00
2018-10-17T00:50:11.130Z,101086.00
2018-10-17T00:52:40.472Z,101085.00
2018-10-17T00:55:09.925Z,101075.00
2018-10-17T00:57:39.207Z,101083.00
2018-10-17T01:00:08.566Z,101077.00
2018-10-17T01:02:37.885Z,101072.00
2018-10-17T01:05:07.207Z,101063.00
2018-10-17T01:07:36.501Z,101068.00
2018-10-17T01:10:06.080Z,101064.00
2018-10-17T01:12:35.528Z,101069.00
2018-10-17T01:15:05.036Z,101066.00
2018-10-17T01:17:34.359Z,101063.00
2018-10-17T01:20:04.186Z,101055.00
2018-10-17T01:22:33.573Z,101060.00
2018-10-17T01:25:02.949Z,101066.00
2018-10-17T01:27:32.403Z,101062.00
2018-10-17T01:30:01.675Z,101057.00
2018-10-17T01:32:31.021Z,101057.00
2018-10-17T01:35:00.379Z,101056.00
2018-10-17T01:37:30.201Z,101056.00
2018-10-17T01:39:59.493Z,101050.00
2018-10-17T01:42:28.777Z,101049.00
2018-10-17T01:44:58.136Z,101046.00
2018-10-17T01:47:27.500Z,101048.00
2018-10-17T01:49:57.041Z,101045.00
2018-10-17T01:52:26.389Z,101044.00
2018-10-17T01:54:55.740Z,101040.00
2018-10-17T01:57:24.995Z,101040.00
2018-10-17T01:59:54.422Z,101036.00
2018-10-17T02:02:23.731Z,101030.00
2018-10-17T02:04:53.172Z,101031.00
2018-10-17T02:07:22.406Z,101032.00
2018-10-17T02:09:51.821Z,101027.00
2018-10-17T02:12:21.068Z,101028.00
2018-10-17T02:14:50.352Z,101027.00
2018-10-17T02:17:19.833Z,101030.00
2018-10-17T02:19:52.388Z,101031.00
2018-10-17T02:22:22.093Z,101027.00
2018-10-17T02:24:51.551Z,101030.00
2018-10-17T02:27:20.920Z,101027.00
2018-10-17T02:29:50.560Z,101032.00
2018-10-17T02:32:20.120Z,101030.00
2018-10-17T02:34:54.536Z,101027.00
2018-10-17T02:37:23.891Z,101027.00
2018-10-17T02:39:53.182Z,101017.00
2018-10-17T02:42:22.484Z,101029.00
2018-10-17T02:44:51.821Z,101028.00
2018-10-17T02:47:21.153Z,101023.00
2018-10-17T02:52:58.460Z,101027.00
2018-10-17T02:55:27.744Z,101030.00
2018-10-17T02:58:00.597Z,101030.00
2018-10-17T03:00:29.987Z,101033.00
2018-10-17T03:02:59.335Z,101033.00
2018-10-17T03:05:28.716Z,101030.00
2018-10-17T03:07:58.043Z,101037.00
2018-10-17T03:10:27.365Z,101034.00
2018-10-17T03:12:56.734Z,101041.00
2018-10-17T03:15:26.050Z,101035.00
2018-10-17T03:17:55.431Z,101035.00
2018-10-17T03:20:24.840Z,101037.00
2018-10-17T03:22:54.163Z,101037.00
2018-10-17T03:25:23.461Z,101045.00
2018-10-17T03:27:52.900Z,101053.00
2018-10-17T03:30:22.205Z,101046.00
2018-10-17T03:32:51.514Z,101039.00
2018-10-17T03:35:20.933Z,101040.00
2018-10-17T03:37:50.160Z,101042.00
2018-10-17T03:40:19.528Z,101039.00
2018-10-17T03:42:48.905Z,101040.00
2018-10-17T03:45:18.228Z,101044.00
2018-10-17T03:47:47.558Z,101039.00
2018-10-17T03:50:17.000Z,101041.00
2018-10-17T03:52:46.317Z,101041.00
2018-10-17T03:55:15.883Z,101036.00
2018-10-17T03:57:45.042Z,101040.00
2018-10-17T04:00:16.407Z,101034.00
2018-10-17T04:02:45.830Z,101039.00
2018-10-17T04:05:15.225Z,101038.00
2018-10-17T04:07:44.582Z,101039.00
2018-10-17T04:10:14.080Z,101045.00
2018-10-17T04:12:43.679Z,101048.00
2018-10-17T04:15:13.213Z,101048.00
2018-10-17T04:17:42.583Z,101049.00
2018-10-17T04:20:11.981Z,101051.00
2018-10-17T04:22:46.597Z,101054.00
2018-10-17T04:25:15.997Z,101047.00
2018-10-17T04:27:45.260Z,101054.00
2018-10-17T04:30:14.809Z,101048.00
2018-10-17T04:32:44.168Z,101055.00
2018-10-17T04:35:13.611Z,101056.00
2018-10-17T04:37:43.139Z,101047.00
2018-10-17T04:40:12.505Z,101055.00
2018-10-17T04:42:41.908Z,101058.00
2018-10-17T04:45:11.538Z,101063.00
2018-10-17T04:47:40.957Z,101064.00
2018-10-17T04:50:11.250Z,101063.00
2018-10-17T04:52:40.961Z,101071.00
2018-10-17T04:55:11.277Z,101071.00
2018-10-17T04:57:40.760Z,101065.00
2018-10-17T05:00:11.828Z,101066.00
2018-10-17T05:02:42.481Z,101068.00
2018-10-17T05:05:12.512Z,101061.00
2018-10-17T05:07:41.811Z,101062.00
2018-10-17T05:10:11.199Z,101062.00
2018-10-17T05:12:40.538Z,101074.00
2018-10-17T05:15:09.932Z,101064.00
2018-10-17T05:17:39.221Z,101061.00
2018-10-17T05:20:08.707Z,101063.00
2018-10-17T05:22:38.124Z,101067.00
2018-10-17T05:25:08.838Z,101060.00
2018-10-17T05:27:39.310Z,101067.00
2018-10-17T05:30:08.809Z,101052.00
2018-10-17T05:32:38.195Z,101062.00
2018-10-17T05:35:08.464Z,101060.00
2018-10-17T05:37:37.878Z,101063.00
2018-10-17T05:40:07.344Z,101068.00
2018-10-17T05:42:36.665Z,101057.00
2018-10-17T05:45:07.373Z,101065.00
2018-10-17T05:47:36.749Z,101063.00
2018-10-17T05:50:06.151Z,101065.00
2018-10-17T05:52:35.456Z,101062.00
2018-10-17T05:55:04.821Z,101059.00
2018-10-17T05:57:34.114Z,101062.00
2018-10-17T06:00:03.496Z,101064.00
2018-10-17T06:02:34.526Z,101073.00
2018-10-17T06:05:03.935Z,101067.00
2018-10-17T06:07:33.241Z,101070.00
2018-10-17T06:10:02.602Z,101066.00
2018-10-17T06:12:35.930Z,101073.00
2018-10-17T06:15:05.996Z,101069.00
2018-10-17T06:17:35.354Z,101069.00
2018-10-17T06:20:05.489Z,101076.00
2018-10-17T06:22:34.834Z,101077.00
2018-10-17T06:25:04.379Z,101084.00
2018-10-17T06:27:33.595Z,101084.00
2018-10-17T06:30:02.947Z,101088.00
2018-10-17T06:32:32.287Z,101081.00
2018-10-17T06:35:01.760Z,101076.00
2018-10-17T06:37:31.020Z,101078.00
2018-10-17T06:40:00.447Z,101075.00
2018-10-17T06:42:29.923Z,101076.00
2018-10-17T06:45:00.461Z,101089.00
2018-10-17T06:47:31.828Z,101084.00
2018-10-17T06:50:01.561Z,101081.00
2018-10-17T06:52:30.912Z,101080.00
2018-10-17T06:55:00.218Z,101078.00
2018-10-17T06:57:29.629Z,101084.00
2018-10-17T06:59:59.010Z,101082.00
2018-10-17T07:02:28.364Z,101077.00
2018-10-17T07:04:57.752Z,101088.00
2018-10-17T07:07:27.052Z,101086.00
2018-10-17T07:09:56.316Z,101102.00
2018-10-17T07:12:25.603Z,101090.00
2018-10-17T07:14:54.894Z,101100.00
2018-10-17T07:17:24.365Z,101078.00
2018-10-17T07:19:53.787Z,101082.00
2018-10-17T07:22:23.167Z,101077.00
2018-10-17T07:24:52.541Z,101087.00
2018-10-17T07:27:21.957Z,101087.00
2018-10-17T07:29:51.558Z,101084.00
2018-10-17T07:32:20.739Z,101089.00
2018-10-17T07:34:50.040Z,101092.00
2018-10-17T07:37:20.484Z,101093.00
2018-10-17T07:39:49.902Z,101091.00
2018-10-17T07:42:19.299Z,101088.00
2018-10-17T07:44:48.592Z,101083.00
2018-10-17T07:47:17.929Z,101094.00
2018-10-17T07:49:47.340Z,101092.00
2018-10-17T07:52:16.718Z,101093.00
2018-10-17T07:54:45.989Z,101085.00
2018-10-17T07:57:15.293Z,101102.00
2018-10-17T07:59:44.803Z,101095.00
2018-10-17T08:02:14.206Z,101095.00
2018-10-17T08:04:43.650Z,101087.00
2018-10-17T08:07:13.861Z,101100.00
2018-10-17T08:09:43.276Z,101091.00
2018-10-17T08:12:12.763Z,101095.00
2018-10-17T08:14:42.591Z,101100.00
2018-10-17T08:17:12.687Z,101091.00
2018-10-17T08:19:42.041Z,101092.00
2018-10-17T08:22:11.364Z,101094.00
2018-10-17T08:24:40.793Z,101101.00
2018-10-17T08:27:12.243Z,101104.00
2018-10-17T08:29:41.559Z,101096.00
2018-10-17T08:32:10.975Z,101104.00
2018-10-17T08:34:40.363Z,101096.00
2018-10-17T08:37:09.999Z,101101.00
2018-10-17T08:39:39.106Z,101112.00
2018-10-17T08:42:08.459Z,101106.00
2018-10-17T08:44:37.748Z,101101.00
2018-10-17T08:47:07.116Z,101096.00
2018-10-17T08:49:36.441Z,101107.00
2018-10-17T08:52:05.950Z,101110.00
2018-10-17T08:54:35.321Z,101111.00
2018-10-17T08:57:04.678Z,101101.00
2018-10-17T08:59:34.009Z,101105.00
2018-10-17T09:02:03.393Z,101106.00
2018-10-17T09:04:32.717Z,101104.00
2018-10-17T09:07:02.130Z,101107.00
2018-10-17T09:09:31.493Z,101100.00
2018-10-17T09:12:00.893Z,101102.00
2018-10-17T09:14:30.336Z,101099.00
2018-10-17T09:16:59.709Z,101090.00
2018-10-17T09:19:30.233Z,101092.00
2018-10-17T09:21:59.799Z,101091.00
2018-10-17T09:24:28.906Z,101095.00
2018-10-17T09:26:58.260Z,101092.00
2018-10-17T09:29:27.561Z,101102.00
2018-10-17T09:31:56.979Z,101093.00
2018-10-17T09:34:26.369Z,101093.00
2018-10-17T09:36:55.758Z,101100.00
2018-10-17T09:39:25.203Z,101088.00
2018-10-17T09:41:54.675Z,101087.00
2018-10-17T09:44:23.967Z,101091.00
2018-10-17T09:46:53.277Z,101090.00
2018-10-17T09:49:22.677Z,101099.00
2018-10-17T09:51:52.010Z,101092.00
2018-10-17T09:54:21.401Z,101085.00
2018-10-17T09:56:50.826Z,101084.00
2018-10-17T09:59:20.197Z,101093.00
2018-10-17T10:01:53.426Z,101093.00
2018-10-17T10:04:23.443Z,101085.00
2018-10-17T10:06:52.775Z,101087.00
2018-10-17T10:09:22.237Z,101090.00
2018-10-17T10:11:51.634Z,101089.00
2018-10-17T10:14:21.046Z,101090.00
2018-10-17T10:16:50.364Z,101075.00
2018-10-17T10:19:19.678Z,101083.00
2018-10-17T10:21:49.034Z,101075.00
2018-10-17T10:24:18.426Z,101076.00
2018-10-17T10:26:47.741Z,101083.00
2018-10-17T10:29:17.097Z,101072.00
2018-10-17T10:31:46.422Z,101075.00
2018-10-17T10:34:15.849Z,101075.00
2018-10-17T10:36:45.189Z,101071.00
2018-10-17T10:39:14.589Z,101065.00
2018-10-17T10:41:43.868Z,101068.00
2018-10-17T10:44:13.366Z,101074.00
2018-10-17T10:46:42.714Z,101069.00
2018-10-17T10:49:14.174Z,101066.00
2018-10-17T10:51:43.502Z,101066.00
2018-10-17T10:54:12.909Z,101070.00
2018-10-17T10:56:42.197Z,101055.00
2018-10-17T10:59:11.628Z,101068.00
2018-10-17T11:01:40.966Z,101062.00
2018-10-17T11:04:10.335Z,101056.00
2018-10-17T11:06:39.695Z,101058.00
2018-10-17T11:09:09.538Z,101057.00
2018-10-17T11:11:39.139Z,101057.00
2018-10-17T11:14:09.094Z,101057.00
2018-10-17T11:16:38.496Z,101067.00
2018-10-17T11:19:07.889Z,101060.00
2018-10-17T11:21:37.381Z,101062.00
2018-10-17T11:24:07.079Z,101053.00
2018-10-17T11:26:36.541Z,101056.00
2018-10-17T11:29:06.018Z,101060.00
2018-10-17T11:31:35.425Z,101056.00
2018-10-17T11:34:04.768Z,101060.00
2018-10-17T11:36:34.152Z,101057.00
2018-10-17T11:39:03.671Z,101047.00
2018-10-17T11:41:35.174Z,101052.00
2018-10-17T11:44:04.653Z,101047.00
2018-10-17T11:46:34.100Z,101040.00
2018-10-17T11:49:03.570Z,101041.00
2018-10-17T11:51:33.034Z,101035.00
2018-10-17T11:54:02.372Z,101045.00
2018-10-17T11:56:31.974Z,101046.00
2018-10-17T11:59:01.291Z,101044.00
2018-10-17T12:01:30.716Z,101035.00
2018-10-17T12:04:00.518Z,101031.00
2018-10-17T12:06:29.921Z,101024.00
2018-10-17T12:08:59.296Z,101022.00
2018-10-17T12:11:28.626Z,101016.00
2018-10-17T12:13:58.211Z,101020.00
2018-10-17T12:16:28.101Z,101022.00
2018-10-17T12:18:57.425Z,101023.00
2018-10-17T12:21:26.906Z,101021.00
2018-10-17T12:23:56.138Z,101021.00
2018-10-17T12:26:25.513Z,101018.00
2018-10-17T12:28:55.001Z,101019.00
2018-10-17T12:31:24.658Z,101016.00
2018-10-17T12:33:54.099Z,101013.00
2018-10-17T12:36:23.447Z,101017.00
2018-10-17T12:38:53.132Z,101011.00
2018-10-17T12:41:22.492Z,101013.00
2018-10-17T12:43:51.933Z,101014.00
2018-10-17T12:46:21.257Z,101012.00
2018-10-17T12:48:50.910Z,101010.00
2018-10-17T12:51:20.314Z,101019.00
2018-10-17T12:53:49.707Z,101016.00
2018-10-17T12:56:19.079Z,101017.00
2018-10-17T12:58:48.385Z,101021.00
2018-10-17T13:01:17.778Z,101022.00
2018-10-17T13:03:52.180Z,101020.00
2018-10-17T13:06:21.530Z,101015.00
2018-10-17T13:08:50.885Z,101014.00
2018-10-17T13:11:20.415Z,101015.00
2018-10-17T13:13:49.696Z,101019.00
2018-10-17T13:16:19.064Z,101010.00
2018-10-17T13:18:48.564Z,101005.00
2018-10-17T13:21:17.878Z,101012.00
2018-10-17T13:23:47.252Z,101009.00
2018-10-17T13:26:17.652Z,101016.00
2018-10-17T13:28:47.093Z,101011.00
2018-10-17T13:31:16.560Z,101009.00
2018-10-17T13:33:45.909Z,101002.00
2018-10-17T13:36:15.292Z,101011.00
2018-10-17T13:38:44.720Z,101005.00
2018-10-17T13:41:14.226Z,101007.00
2018-10-17T13:43:43.632Z,101012.00
2018-10-17T13:46:12.961Z,101011.00
2018-10-17T13:48:42.345Z,101010.00
2018-10-17T13:51:11.713Z,101011.00
2018-10-17T13:53:41.104Z,101013.00
2018-10-17T13:56:10.525Z,101010.00
2018-10-17T13:58:39.862Z,101013.00
2018-10-17T14:01:09.256Z,101007.00
2018-10-17T14:03:38.820Z,101005.00
2018-10-17T14:06:08.281Z,101015.00
2018-10-17T14:08:37.562Z,101009.00
2018-10-17T14:11:07.996Z,101003.00
2018-10-17T14:13:37.295Z,101010.00
2018-10-17T14:16:07.041Z,101007.00
2018-10-17T14:18:36.456Z,101003.00
2018-10-17T14:21:05.912Z,101001.00
2018-10-17T14:23:35.314Z,101007.00
2018-10-17T14:26:04.897Z,101002.00
2018-10-17T14:28:34.326Z,100997.00
2018-10-17T14:31:07.078Z,101004.00
2018-10-17T14:33:36.601Z,100995.00
2018-10-17T14:36:06.166Z,101002.00
2018-10-17T14:38:35.526Z,101005.00
2018-10-17T14:41:04.996Z,101002.00
2018-10-17T14:43:34.451Z,101009.00
2018-10-17T14:46:03.750Z,101005.00
2018-10-17T14:48:33.193Z,101007.00
2018-10-17T14:51:03.813Z,101012.00
2018-10-17T14:53:33.172Z,101006.00
2018-10-17T14:56:02.689Z,101009.00
2018-10-17T14:59:01.579Z,101011.00
2018-10-17T15:01:32.149Z,101010.00
2018-10-17T15:04:03.120Z,101016.00
2018-10-17T15:06:33.331Z,101018.00
2018-10-17T15:09:04.624Z,101017.00
2018-10-17T15:11:34.034Z,101012.00
2018-10-17T15:14:03.514Z,101018.00
2018-10-17T15:16:34.992Z,101023.00
2018-10-17T15:19:04.433Z,101019.00
2018-10-17T15:21:33.778Z,101022.00
2018-10-17T15:24:03.261Z,101021.00
2018-10-17T15:26:32.662Z,101018.00
2018-10-17T15:29:02.023Z,101016.00
2018-10-17T15:31:32.468Z,101023.00
2018-10-17T15:34:01.861Z,101026.00
2018-10-17T15:36:31.725Z,101034.00
2018-10-17T15:39:01.459Z,101035.00
2018-10-17T15:41:32.912Z,101032.00
2018-10-17T15:44:02.341Z,101029.00
2018-10-17T15:46:34.043Z,101034.00
2018-10-17T15:49:03.432Z,101035.00
2018-10-17T15:51:33.116Z,101028.00
2018-10-17T15:54:02.822Z,101037.00
2018-10-17T15:56:32.242Z,101028.00
2018-10-17T15:59:01.729Z,101034.00
2018-10-17T16:01:31.310Z,101040.00
2018-10-17T16:04:00.832Z,101041.00
2018-10-17T16:06:30.524Z,101038.00
2018-10-17T16:09:00.080Z,101042.00
2018-10-17T16:11:29.598Z,101047.00
2018-10-17T16:13:59.177Z,101045.00
2018-10-17T16:16:28.795Z,101048.00
2018-10-17T16:18:58.397Z,101053.00
2018-10-17T16:21:27.950Z,101052.00
2018-10-17T16:23:57.660Z,101051.00
2018-10-17T16:26:27.304Z,101053.00
2018-10-17T16:28:56.904Z,101045.00
2018-10-17T16:31:26.516Z,101056.00
2018-10-17T16:33:56.150Z,101058.00
2018-10-17T16:36:25.749Z,101059.00
2018-10-17T16:38:55.358Z,101058.00
2018-10-17T16:41:25.051Z,101060.00
2018-10-17T16:43:54.657Z,101067.00
2018-10-17T16:46:24.449Z,101062.00
2018-10-17T16:48:54.067Z,101070.00
2018-10-17T16:51:23.654Z,101069.00
2018-10-17T16:53:53.310Z,101071.00
2018-10-17T16:56:23.040Z,101064.00
2018-10-17T16:58:52.689Z,101081.00
2018-10-17T17:01:22.343Z,101080.00
2018-10-17T17:03:51.954Z,101095.00
2018-10-17T17:06:21.526Z,101089.00
2018-10-17T17:08:51.042Z,101103.00
2018-10-17T17:11:20.540Z,101102.00
2018-10-17T17:13:50.090Z,101099.00
2018-10-17T17:16:19.897Z,101107.00
2018-10-17T17:18:49.471Z,101107.00
2018-10-17T17:21:19.133Z,101107.00
2018-10-17T17:23:48.611Z,101107.00
2018-10-17T17:26:18.294Z,101110.00
2018-10-17T17:28:47.915Z,101115.00
2018-10-17T17:31:17.469Z,101116.00
2018-10-17T17:33:47.010Z,101121.00
2018-10-17T17:36:16.591Z,101121.00
2018-10-17T17:38:46.065Z,101131.00
2018-10-17T17:41:28.870Z,101129.00
2018-10-17T17:43:58.610Z,101138.00
2018-10-17T17:46:34.622Z,101133.00
2018-10-17T17:49:04.361Z,101130.00
2018-10-17T17:51:33.878Z,101139.00
2018-10-17T17:54:03.485Z,101137.00
2018-10-17T17:56:33.158Z,101136.00
2018-10-17T17:59:02.708Z,101139.00
2018-10-17T18:01:33.356Z,101139.00
2018-10-17T18:04:03.042Z,101143.00
2018-10-17T18:06:32.620Z,101147.00
2018-10-17T18:09:02.207Z,101140.00
2018-10-17T18:11:31.825Z,101148.00
2018-10-17T18:14:01.414Z,101152.00
2018-10-17T18:16:31.179Z,101147.00
2018-10-17T18:19:00.792Z,101152.00
2018-10-17T18:21:30.332Z,101153.00
2018-10-17T18:23:59.882Z,101153.00
2018-10-17T18:26:31.413Z,101164.00
2018-10-17T18:29:01.095Z,101158.00
2018-10-17T18:31:30.822Z,101169.00
2018-10-17T18:34:00.620Z,101161.00
2018-10-17T18:36:30.202Z,101172.00
2018-10-17T18:38:59.989Z,101179.00
2018-10-17T18:41:29.620Z,101183.00
2018-10-17T18:43:59.398Z,101187.00
2018-10-17T18:46:29.269Z,101182.00
2018-10-17T18:49:00.630Z,101188.00
2018-10-17T18:54:20.534Z,101196.00
2018-10-17T18:56:50.328Z,101202.00
2018-10-17T18:59:20.044Z,101204.00
2018-10-17T19:01:49.826Z,101206.00
2018-10-17T19:04:19.426Z,101210.00
2018-10-17T19:06:49.099Z,101203.00
2018-10-17T19:09:18.822Z,101209.00
2018-10-17T19:11:48.462Z,101206.00
2018-10-17T19:14:18.007Z,101207.00
2018-10-17T19:16:47.580Z,101216.00
2018-10-17T19:19:17.121Z,101218.00
2018-10-17T19:21:46.689Z,101216.00
2018-10-17T19:24:18.350Z,101218.00
2018-10-17T19:26:47.859Z,101221.00
2018-10-17T19:29:17.317Z,101224.00
2018-10-17T19:31:46.901Z,101220.00
2018-10-17T19:34:16.400Z,101225.00
2018-10-17T19:36:48.095Z,101221.00
2018-10-17T19:39:17.949Z,101223.00
2018-10-17T19:41:47.641Z,101224.00
2018-10-17T19:44:17.566Z,101234.00
2018-10-17T19:49:36.071Z,101225.00
2018-10-17T19:52:07.758Z,101219.00
2018-10-17T19:55:02.477Z,101229.00
2018-10-17T19:57:32.068Z,101229.00
2018-10-17T20:00:01.841Z,101230.00
2018-10-17T20:02:35.385Z,101231.00
2018-10-17T20:05:04.910Z,101235.00
2018-10-17T20:07:35.448Z,101229.00
2018-10-17T20:12:50.182Z,101242.00
2018-10-17T20:15:20.214Z,101242.00
2018-10-17T20:17:51.044Z,101233.00
2018-10-17T20:20:20.669Z,101245.00
2018-10-17T20:22:51.142Z,101245.00
2018-10-17T20:25:20.986Z,101249.00
2018-10-17T20:27:51.517Z,101237.00
2018-10-17T20:30:24.480Z,101247.00
2018-10-17T20:32:54.797Z,101250.00
2018-10-17T20:35:26.959Z,101241.00
2018-10-17T20:37:58.565Z,101244.00
2018-10-17T20:40:29.038Z,101245.00
2018-10-17T20:43:11.409Z,101242.00
2018-10-17T20:45:41.109Z,101247.00
2018-10-17T20:48:11.092Z,101244.00
2018-10-17T20:50:40.921Z,101242.00
2018-10-17T20:53:11.175Z,101248.00
2018-10-17T20:55:41.947Z,101258.00
2018-10-17T20:58:11.941Z,101248.00
2018-10-17T21:00:42.662Z,101244.00
2018-10-17T21:03:12.258Z,101248.00
2018-10-17T21:05:44.059Z,101254.00
2018-10-17T21:08:13.885Z,101255.00
2018-10-17T21:10:43.615Z,101254.00
2018-10-17T21:13:14.869Z,101252.00
2018-10-17T21:15:44.867Z,101262.00
2018-10-17T21:18:14.628Z,101269.00
2018-10-17T21:20:44.505Z,101264.00
2018-10-17T21:23:14.489Z,101262.00
2018-10-17T21:25:44.655Z,101262.00
2018-10-17T21:28:14.394Z,101266.00
2018-10-17T21:30:44.159Z,101269.00
2018-10-17T21:33:13.994Z,101264.00
2018-10-17T21:35:45.088Z,101271.00
2018-10-17T21:38:14.716Z,101274.00
2018-10-17T21:40:44.445Z,101278.00
2018-10-17T21:43:14.606Z,101280.00
2018-10-17T21:45:44.612Z,101277.00
2018-10-17T21:48:14.153Z,101281.00
2018-10-17T21:50:43.866Z,101276.00
2018-10-17T21:53:13.523Z,101282.00
2018-10-17T21:55:43.252Z,101283.00
2018-10-17T21:58:12.809Z,101279.00
2018-10-17T22:00:42.393Z,101278.00
2018-10-17T22:03:11.908Z,101285.00
2018-10-17T22:05:41.443Z,101283.00
2018-10-17T22:08:11.112Z,101278.00
2018-10-17T22:10:40.846Z,101280.00
2018-10-17T22:13:10.226Z,101284.00
2018-10-17T22:15:40.216Z,101284.00
2018-10-17T22:18:10.568Z,101277.00
2018-10-17T22:20:43.358Z,101285.00
2018-10-17T22:23:12.802Z,101284.00
2018-10-17T22:25:42.583Z,101287.00
2018-10-17T22:28:12.603Z,101294.00
2018-10-17T22:30:42.161Z,101285.00
2018-10-17T22:33:11.565Z,101294.00
2018-10-17T22:35:40.928Z,101292.00
2018-10-17T22:38:10.403Z,101296.00
2018-10-17T22:40:40.126Z,101296.00
2018-10-17T22:43:09.492Z,101298.00
2018-10-17T22:45:38.899Z,101290.00
2018-10-17T22:48:08.582Z,101298.00
2018-10-17T22:50:38.233Z,101303.00
2018-10-17T22:53:08.577Z,101300.00
2018-10-17T22:55:38.064Z,101310.00
2018-10-17T22:58:07.482Z,101310.00
2018-10-17T23:00:36.884Z,101298.00
2018-10-17T23:03:06.709Z,101313.00
2018-10-17T23:05:36.393Z,101310.00
2018-10-17T23:08:09.048Z,101311.00
2018-10-17T23:10:38.421Z,101308.00
2018-10-17T23:13:11.754Z,101306.00
2018-10-17T23:15:41.184Z,101303.00
2018-10-17T23:18:10.615Z,101304.00
2018-10-17T23:20:40.122Z,101300.00
2018-10-17T23:23:09.553Z,101292.00
2018-10-17T23:25:39.093Z,101300.00
2018-10-17T23:28:08.455Z,101295.00
2018-10-17T23:30:37.837Z,101303.00
2018-10-17T23:33:07.319Z,101293.00
2018-10-17T23:35:36.760Z,101304.00
2018-10-17T23:38:06.213Z,101301.00
2018-10-17T23:40:35.601Z,101304.00
2018-10-17T23:43:05.742Z,101309.00
2018-10-17T23:45:35.139Z,101301.00
2018-10-17T23:48:05.016Z,101304.00
2018-10-17T23:50:34.889Z,101312.00
2018-10-17T23:53:04.263Z,101308.00
2018-10-17T23:55:33.721Z,101314.00
2018-10-17T23:58:03.145Z,101312.00
